createdAt,value
2019-05-10T00:01:53.605Z,98541.48
2019-05-10T00:04:40.477Z,98540.55
2019-05-10T00:07:27.577Z,98545.98
2019-05-10T00:09:56.204Z,98545.59
2019-05-10T00:12:27.275Z,98544.64
2019-05-10T00:14:55.984Z,98549.14
2019-05-10T00:17:25.456Z,98543.91
2019-05-10T00:19:54.826Z,98545.83
2019-05-10T00:22:24.143Z,98549.64
2019-05-10T00:25:03.969Z,98550.58
2019-05-10T00:27:26.461Z,98555.91
2019-05-10T00:29:55.843Z,98552.80
2019-05-10T00:32:25.282Z,98556.50
2019-05-10T00:34:54.755Z,98563.53
2019-05-10T00:37:24.225Z,98558.20
2019-05-10T00:39:53.645Z,98555.53
2019-05-10T00:42:23.114Z,98566.70
2019-05-10T00:44:52.512Z,98558.02
2019-05-10T00:47:22.002Z,98561.26
2019-05-10T00:49:51.488Z,98556.80
2019-05-10T00:52:20.897Z,98554.70
2019-05-10T00:54:50.250Z,98558.30
2019-05-10T00:57:19.833Z,98565.94
2019-05-10T00:59:49.288Z,98562.51
2019-05-10T01:02:18.688Z,98565.26
2019-05-10T01:05:31.594Z,98564.03
2019-05-10T01:08:01.057Z,98574.03
2019-05-10T01:10:30.563Z,98564.02
2019-05-10T01:13:03.333Z,98570.02
2019-05-10T01:15:32.884Z,98574.02
2019-05-10T01:18:02.405Z,98570.59
2019-05-10T01:20:31.956Z,98569.92
2019-05-10T01:23:01.382Z,98567.75
2019-05-10T01:25:34.974Z,98577.73
2019-05-10T01:28:01.471Z,98576.98
2019-05-10T01:30:31.459Z,98575.64
2019-05-10T01:33:01.055Z,98571.75
2019-05-10T01:35:33.594Z,98575.25
2019-05-10T01:38:03.280Z,98586.51
2019-05-10T01:40:32.904Z,98580.33
2019-05-10T01:43:02.389Z,98581.84
2019-05-10T01:45:31.907Z,98586.59
2019-05-10T01:48:01.424Z,98592.39
2019-05-10T01:50:30.775Z,98590.80
2019-05-10T01:53:00.307Z,98584.69
2019-05-10T01:55:29.885Z,98590.30
2019-05-10T01:57:59.601Z,98595.73
2019-05-10T02:00:29.029Z,98596.13
2019-05-10T02:02:58.578Z,98596.39
2019-05-10T02:05:28.034Z,98595.55
2019-05-10T02:07:57.441Z,98598.29
2019-05-10T02:10:26.923Z,98597.27
2019-05-10T02:12:56.330Z,98610.95
2019-05-10T02:15:25.690Z,98609.62
2019-05-10T02:17:55.409Z,98612.95
2019-05-10T02:20:24.874Z,98614.75
2019-05-10T02:22:55.136Z,98613.42
2019-05-10T02:25:24.840Z,98618.75
2019-05-10T02:27:54.388Z,98624.08
2019-05-10T02:30:23.933Z,98624.28
2019-05-10T02:32:53.454Z,98624.19
2019-05-10T02:35:22.800Z,98624.25
2019-05-10T02:37:52.405Z,98620.82
2019-05-10T02:40:21.982Z,98624.91
2019-05-10T02:42:51.475Z,98628.34
2019-05-10T02:45:21.505Z,98623.38
2019-05-10T02:47:51.225Z,98625.11
2019-05-10T02:50:21.339Z,98621.28
2019-05-10T02:52:50.688Z,98625.78
2019-05-10T02:55:20.198Z,98631.67
2019-05-10T02:57:49.906Z,98633.16
2019-05-10T03:00:19.401Z,98627.64
2019-05-10T03:02:48.955Z,98637.92
2019-05-10T03:05:18.535Z,98640.28
2019-05-10T03:07:48.071Z,98639.81
2019-05-10T03:10:17.785Z,98649.59
2019-05-10T03:12:48.754Z,98650.52
2019-05-10T03:15:18.210Z,98654.14
2019-05-10T03:17:47.638Z,98651.28
2019-05-10T03:20:19.359Z,98658.95
2019-05-10T03:22:49.053Z,98666.48
2019-05-10T03:25:18.643Z,98669.25
2019-05-10T03:27:48.182Z,98667.25
2019-05-10T03:30:18.537Z,98668.28
2019-05-10T03:32:48.568Z,98669.61
2019-05-10T03:35:18.498Z,98678.86
2019-05-10T03:37:48.522Z,98668.11
2019-05-10T03:40:18.651Z,98668.79
2019-05-10T03:42:48.956Z,98669.55
2019-05-10T03:45:19.563Z,98665.82
2019-05-10T03:47:50.363Z,98670.38
2019-05-10T03:50:20.416Z,98671.23
2019-05-10T03:52:52.268Z,98674.91
2019-05-10T03:55:22.796Z,98665.23
2019-05-10T03:57:53.142Z,98671.38
2019-05-10T04:00:23.153Z,98680.13
2019-05-10T04:02:53.863Z,98679.91
2019-05-10T04:05:24.036Z,98681.89
2019-05-10T04:07:54.257Z,98690.13
2019-05-10T04:10:24.914Z,98682.49
2019-05-10T04:12:55.144Z,98689.86
2019-05-10T04:15:25.504Z,98687.08
2019-05-10T04:17:55.918Z,98689.83
2019-05-10T04:20:26.408Z,98691.25
2019-05-10T04:22:56.850Z,98690.94
2019-05-10T04:25:26.930Z,98702.81
2019-05-10T04:27:57.142Z,98704.00
2019-05-10T04:30:31.527Z,98698.48
2019-05-10T04:33:32.144Z,98708.66
2019-05-10T04:36:02.451Z,98709.91
2019-05-10T04:38:32.830Z,98712.59
2019-05-10T04:41:03.489Z,98723.94
2019-05-10T04:43:34.191Z,98724.16
2019-05-10T04:46:04.608Z,98722.95
2019-05-10T04:48:35.298Z,98733.34
2019-05-10T04:51:05.608Z,98731.76
2019-05-10T04:53:36.571Z,98735.97
2019-05-10T04:56:06.944Z,98744.31
2019-05-10T04:58:37.251Z,98742.98
2019-05-10T05:01:08.039Z,98747.08
2019-05-10T05:03:38.563Z,98748.96
2019-05-10T05:06:08.639Z,98752.49
2019-05-10T05:08:39.746Z,98754.75
2019-05-10T05:11:09.080Z,98757.81
2019-05-10T05:13:39.375Z,98761.62
2019-05-10T05:16:09.910Z,98771.40
2019-05-10T05:18:40.012Z,98769.91
2019-05-10T05:21:10.434Z,98769.07
2019-05-10T05:23:40.458Z,98769.13
2019-05-10T05:26:10.501Z,98768.61
2019-05-10T05:28:40.921Z,98776.26
2019-05-10T05:31:11.446Z,98772.79
2019-05-10T05:33:41.786Z,98778.12
2019-05-10T05:36:12.370Z,98784.06
2019-05-10T05:38:47.306Z,98777.61
2019-05-10T05:41:14.932Z,98778.48
2019-05-10T05:43:46.290Z,98785.61
2019-05-10T05:46:17.193Z,98779.05
2019-05-10T05:48:47.364Z,98784.88
2019-05-10T05:51:17.464Z,98790.14
2019-05-10T05:53:47.894Z,98791.28
2019-05-10T05:56:18.148Z,98799.84
2019-05-10T05:58:48.134Z,98792.03
2019-05-10T06:01:26.525Z,98793.55
2019-05-10T06:03:50.967Z,98793.02
2019-05-10T06:06:22.331Z,98795.39
2019-05-10T06:08:54.624Z,98801.41
2019-05-10T06:11:24.125Z,98806.84
2019-05-10T06:13:54.945Z,98802.44
2019-05-10T06:16:25.682Z,98805.09
2019-05-10T06:18:55.726Z,98805.75
2019-05-10T06:21:26.845Z,98810.39
2019-05-10T06:23:59.416Z,98809.02
2019-05-10T06:26:29.674Z,98811.70
2019-05-10T06:29:04.241Z,98820.98
2019-05-10T06:31:32.010Z,98818.99
2019-05-10T06:34:02.193Z,98811.12
2019-05-10T06:36:32.915Z,98828.01
2019-05-10T06:39:03.951Z,98830.03
2019-05-10T06:41:33.552Z,98828.22
2019-05-10T06:44:03.899Z,98832.43
2019-05-10T06:46:34.239Z,98828.92
2019-05-10T06:49:08.287Z,98829.47
2019-05-10T06:51:36.533Z,98830.89
2019-05-10T06:54:07.084Z,98832.05
2019-05-10T06:56:37.458Z,98832.80
2019-05-10T06:59:13.522Z,98837.33
2019-05-10T07:01:45.614Z,98837.30
2019-05-10T07:04:11.747Z,98839.94
2019-05-10T07:06:41.900Z,98837.77
2019-05-10T07:30:42.606Z,98835.73
2019-05-10T07:33:13.099Z,98833.27
2019-05-10T07:35:43.576Z,98835.32
2019-05-10T07:38:13.865Z,98833.88
2019-05-10T07:40:44.185Z,98836.35
2019-05-10T07:43:24.823Z,98836.20
2019-05-10T07:45:45.831Z,98839.16
2019-05-10T07:48:15.780Z,98846.62
2019-05-10T07:50:49.299Z,98850.09
2019-05-10T07:53:22.782Z,98839.64
2019-05-10T07:55:49.906Z,98862.11
2019-05-10T07:58:19.974Z,98859.59
2019-05-10T08:00:49.920Z,98860.83
2019-05-10T08:03:23.727Z,98858.55
2019-05-10T08:05:57.035Z,98860.28
2019-05-10T08:08:23.529Z,98864.94
2019-05-10T08:10:54.045Z,98868.63
2019-05-10T08:13:25.309Z,98865.94
2019-05-10T08:15:55.741Z,98874.51
2019-05-10T08:18:26.462Z,98872.67
2019-05-10T08:21:02.175Z,98875.85
2019-05-10T08:23:29.369Z,98872.67
2019-05-10T08:25:59.691Z,98884.28
2019-05-10T08:28:34.180Z,98883.07
2019-05-10T08:31:02.480Z,98887.73
2019-05-10T08:33:32.894Z,98892.28
2019-05-10T08:36:05.500Z,98890.08
2019-05-10T08:38:39.516Z,98893.73
2019-05-10T08:41:08.267Z,98888.35
2019-05-10T08:43:40.242Z,98887.87
2019-05-10T08:46:11.992Z,98883.48
2019-05-10T08:48:50.341Z,98892.39
2019-05-10T08:51:14.859Z,98894.98
2019-05-10T08:53:47.056Z,98906.23
2019-05-10T08:56:21.681Z,98908.93
2019-05-10T08:58:48.634Z,98909.41
2019-05-10T09:01:26.611Z,98905.02
2019-05-10T09:03:55.033Z,98909.55
